Tibidy — FGD5859 — position and weather

sailwx.info

Track history (hours):
 
Tides and Currents Weather Stations Pressure Air Temp Water Temp Dewpoint Dewpoint Depression Visibility Wind Speed Wind Dir Waves Ship Positions

Tibidy

Last reported at 2018-Feb-21 19:00 UTC. Time now 2018-Feb-21 19:15 UTC.
Position N 48°23' W 004°30'.

Length 34 m.

Type: Passenger vessel. MMSI: 227574020.

Date/timePositionNaut miles runAvg speedWind from/ knotsBaromVisibWave heightAir tempDewpointWater temp
2018-Feb-21 19:00N 48°23' W 004°30'0 0.0
2018-Feb-21 18:30N 48°23' W 004°30'0 0.5
2018-Feb-21 18:00N 48°23' W 004°30'5 9.9
2018-Feb-21 17:30N 48°18' W 004°30'2 4.1
2018-Feb-21 17:01N 48°19' W 004°27'5 9.4
2018-Feb-21 16:31N 48°23' W 004°30'0 0.6
2018-Feb-21 16:00N 48°23' W 004°30'5 9.9
2018-Feb-21 15:31N 48°18' W 004°31'4 8.4
2018-Feb-21 15:01N 48°22' W 004°29'1 2.3
2018-Feb-21 14:30N 48°23' W 004°30'0 0.0
2018-Feb-21 14:00N 48°23' W 004°30'0 0.0
2018-Feb-21 13:31N 48°23' W 004°30'0 0.0
2018-Feb-21 13:01N 48°23' W 004°30'0 0.0
2018-Feb-21 12:30N 48°23' W 004°30'0 0.0
2018-Feb-21 12:00N 48°23' W 004°30'0 0.0
2018-Feb-21 11:30N 48°23' W 004°30'0 0.0
2018-Feb-21 11:00N 48°23' W 004°30'0 0.0
2018-Feb-21 10:30N 48°23' W 004°30'0 0.0
2018-Feb-21 10:00N 48°23' W 004°30'0 0.0
2018-Feb-21 09:30N 48°23' W 004°30'0 0.0
2018-Feb-21 09:00N 48°23' W 004°30'0 0.0
2018-Feb-21 08:30N 48°23' W 004°30'0 0.0
2018-Feb-21 08:00N 48°23' W 004°30'0 0.0
2018-Feb-21 07:31N 48°23' W 004°30'510.5
2018-Feb-21 07:00N 48°18' W 004°31'510.0
2018-Feb-21 06:30N 48°23' W 004°30'0 0.6
2018-Feb-21 06:01N 48°23' W 004°30'0 0.0
2018-Feb-21 05:31N 48°23' W 004°30'0 0.0
2018-Feb-21 05:01N 48°23' W 004°30'0 0.0
2018-Feb-21 04:30N 48°23' W 004°30'0 0.0
2018-Feb-21 04:01N 48°23' W 004°30'0 0.0
2018-Feb-21 03:31N 48°23' W 004°30'0 0.0
2018-Feb-21 03:01N 48°23' W 004°30'0 0.0
2018-Feb-21 02:31N 48°23' W 004°30'0 0.0
2018-Feb-21 02:01N 48°23' W 004°30'0 0.0
2018-Feb-21 01:30N 48°23' W 004°30'0 0.0
2018-Feb-21 01:00N 48°23' W 004°30'0 0.0
2018-Feb-21 00:30N 48°23' W 004°30'0 0.0
2018-Feb-21 00:01N 48°23' W 004°30'0 0.0
2018-Feb-20 23:31N 48°23' W 004°30'0 0.0
2018-Feb-20 23:01N 48°23' W 004°30'0 0.0
2018-Feb-20 22:31N 48°23' W 004°30'0 0.0
2018-Feb-20 22:00N 48°23' W 004°30'0 0.0
2018-Feb-20 21:31N 48°23' W 004°30'0 0.0
2018-Feb-20 21:00N 48°23' W 004°30'0 0.0
2018-Feb-20 20:31N 48°23' W 004°30'0 0.0
2018-Feb-20 20:01N 48°23' W 004°30'0 0.0
2018-Feb-20 19:31N 48°23' W 004°30'0 0.0
2018-Feb-20 19:01N 48°23' W 004°30'0 0.0
2018-Feb-20 18:31N 48°23' W 004°30'0 0.4
2018-Feb-20 18:01N 48°23' W 004°30'510.0
2018-Feb-20 17:30N 48°18' W 004°30'2 4.5
2018-Feb-20 17:01N 48°19' W 004°27'5 9.8
2018-Feb-20 16:30N 48°23' W 004°30'0 0.7
2018-Feb-20 16:00N 48°23' W 004°30'5 9.9
2018-Feb-20 15:30N 48°18' W 004°31'3 7.0
2018-Feb-20 15:00N 48°21' W 004°29'2 3.8
2018-Feb-20 14:30N 48°23' W 004°30'0 0.0
2018-Feb-20 14:00N 48°23' W 004°30'0 0.0
2018-Feb-20 13:30N 48°23' W 004°30'0 0.0
2018-Feb-20 13:01N 48°23' W 004°30'0 0.0
2018-Feb-20 12:30N 48°23' W 004°30'0 0.0
2018-Feb-20 12:01N 48°23' W 004°30'0 0.0
2018-Feb-20 11:31N 48°23' W 004°30'0 0.0
2018-Feb-20 11:00N 48°23' W 004°30'0 0.0
2018-Feb-20 10:30N 48°23' W 004°30'0 0.0
2018-Feb-20 08:58N 48°23' W 004°30'0 0.0
2018-Feb-20 08:30N 48°23' W 004°30'0 0.0
2018-Feb-20 08:00N 48°23' W 004°30'0 0.0
2018-Feb-20 07:31N 48°23' W 004°30'510.5
2018-Feb-20 07:00N 48°18' W 004°31'510.1
2018-Feb-20 06:31N 48°23' W 004°30'0 0.5
2018-Feb-20 06:00N 48°23' W 004°30'0 0.0
2018-Feb-20 05:31N 48°23' W 004°30'0 0.0
2018-Feb-20 05:00N 48°23' W 004°30'0 0.0
2018-Feb-20 04:30N 48°23' W 004°30'0 0.0
2018-Feb-20 04:01N 48°23' W 004°30'0 0.0
2018-Feb-20 03:31N 48°23' W 004°30'0 0.0
2018-Feb-20 03:00N 48°23' W 004°30'0 0.0
2018-Feb-20 02:31N 48°23' W 004°30'0 0.0
2018-Feb-20 02:00N 48°23' W 004°30'0 0.0
2018-Feb-20 01:30N 48°23' W 004°30'0 0.0
2018-Feb-20 01:00N 48°23' W 004°30'0 0.0
2018-Feb-20 00:30N 48°23' W 004°30'0 0.0
2018-Feb-20 00:00N 48°23' W 004°30'0 0.0
2018-Feb-19 23:30N 48°23' W 004°30'0 0.0
2018-Feb-19 23:00N 48°23' W 004°30'0 0.0
2018-Feb-19 22:30N 48°23' W 004°30'0 0.0
2018-Feb-19 22:01N 48°23' W 004°30'0 0.0
2018-Feb-19 21:30N 48°23' W 004°30'0 0.0
2018-Feb-19 21:00N 48°23' W 004°30'0 0.0
2018-Feb-19 20:31N 48°23' W 004°30'0 0.0
2018-Feb-19 20:00N 48°23' W 004°30'0 0.0
2018-Feb-19 19:30N 48°23' W 004°30'0 0.0
2018-Feb-19 19:00N 48°23' W 004°30'0 0.0
2018-Feb-19 18:31N 48°23' W 004°30'0 0.7
2018-Feb-19 18:01N 48°23' W 004°30'5 9.7
2018-Feb-19 17:30N 48°18' W 004°30'2 3.9
2018-Feb-19 17:00N 48°19' W 004°27'5 9.2
2018-Feb-19 16:30N 48°23' W 004°30'0 0.6
2018-Feb-19 16:00N 48°23' W 004°30'510.0
2018-Feb-19 15:31N 48°18' W 004°31'4 7.7
2018-Feb-19 15:01N 48°22' W 004°29'2 3.0
2018-Feb-19 14:30N 48°23' W 004°30'0 0.0
2018-Feb-19 14:00N 48°23' W 004°30'0 0.0
2018-Feb-19 13:30N 48°23' W 004°30'0 0.0
2018-Feb-19 13:00N 48°23' W 004°30'0 0.0
2018-Feb-19 12:30N 48°23' W 004°30'0 0.0
2018-Feb-19 12:00N 48°23' W 004°30'0 0.0
2018-Feb-19 11:30N 48°23' W 004°30'0 0.0
2018-Feb-19 11:01N 48°23' W 004°30'0 0.0
2018-Feb-19 10:30N 48°23' W 004°30'0 0.0
2018-Feb-19 10:00N 48°23' W 004°30'0 0.0
2018-Feb-19 09:30N 48°23' W 004°30'0 0.0
2018-Feb-19 09:00N 48°23' W 004°30'0 0.0
2018-Feb-19 08:31N 48°23' W 004°30'1 2.0
2018-Feb-19 08:00N 48°22' W 004°31'1 2.0
2018-Feb-19 07:30N 48°23' W 004°30'510.5
2018-Feb-19 07:00N 48°18' W 004°31'510.1
2018-Feb-19 06:30N 48°23' W 004°30'0 0.5
2018-Feb-19 06:01N 48°23' W 004°30'0 0.0
2018-Feb-19 05:31N 48°23' W 004°30'0 0.0
2018-Feb-19 05:01N 48°23' W 004°30'0 0.0
2018-Feb-19 04:30N 48°23' W 004°30'0 0.0
2018-Feb-19 04:00N 48°23' W 004°30'0 0.0
2018-Feb-19 03:30N 48°23' W 004°30'0 0.0
2018-Feb-19 03:00N 48°23' W 004°30'0 0.0
2018-Feb-19 02:30N 48°23' W 004°30'0 0.0
2018-Feb-19 02:00N 48°23' W 004°30'0 0.0
2018-Feb-19 01:30N 48°23' W 004°30'0 0.0
2018-Feb-19 01:00N 48°23' W 004°30'0 0.0
2018-Feb-19 00:30N 48°23' W 004°30'0 0.0
2018-Feb-19 00:01N 48°23' W 004°30'0 0.0
2018-Feb-18 23:30N 48°23' W 004°30'0 0.0
2018-Feb-18 23:00N 48°23' W 004°30'0 0.0
2018-Feb-18 22:30N 48°23' W 004°30'0 0.0
2018-Feb-18 22:00N 48°23' W 004°30'0 0.0
2018-Feb-18 21:30N 48°23' W 004°30'0 0.0
2018-Feb-18 21:00N 48°23' W 004°30'0 0.0
2018-Feb-18 20:30N 48°23' W 004°30'0 0.0
2018-Feb-18 20:00N 48°23' W 004°30'0 0.0
2018-Feb-18 19:30N 48°23' W 004°30'0 0.0
2018-Feb-18 19:01N 48°23' W 004°30'0 0.0
2018-Feb-18 18:30N 48°23' W 004°30'0 0.0
2018-Feb-18 18:01N 48°23' W 004°30'0 0.0
2018-Feb-18 17:30N 48°23' W 004°30'0 0.0
2018-Feb-18 17:00N 48°23' W 004°30'0 0.0
2018-Feb-18 16:30N 48°23' W 004°30'0 0.0
2018-Feb-18 16:00N 48°23' W 004°30'0 0.0
2018-Feb-18 15:30N 48°23' W 004°30'0 0.0
2018-Feb-18 15:00N 48°23' W 004°30'0 0.0
2018-Feb-18 14:30N 48°23' W 004°30'0 0.0
2018-Feb-18 14:00N 48°23' W 004°30'0 0.0
2018-Feb-18 13:30N 48°23' W 004°30'0 0.0
2018-Feb-18 13:00N 48°23' W 004°30'0 0.0
2018-Feb-18 12:30N 48°23' W 004°30'0 0.0
2018-Feb-18 12:01N 48°23' W 004°30'0 0.0
2018-Feb-18 11:30N 48°23' W 004°30'0 0.0
2018-Feb-18 11:00N 48°23' W 004°30'0 0.0
2018-Feb-18 10:30N 48°23' W 004°30'0 0.0
2018-Feb-18 10:00N 48°23' W 004°30'0 0.0
2018-Feb-18 09:30N 48°23' W 004°30'0 0.0
2018-Feb-18 09:00N 48°23' W 004°30'0 0.8
2018-Feb-18 08:30N 48°23' W 004°30'5 9.8
2018-Feb-18 08:00N 48°18' W 004°30'3 6.9
2018-Feb-18 07:31N 48°17' W 004°25'1 1.9
2018-Feb-18 07:00N 48°18' W 004°26'3 6.6
2018-Feb-18 06:31N 48°20' W 004°29'3 5.8
2018-Feb-18 06:00N 48°23' W 004°30'0 0.0
2018-Feb-18 05:30N 48°23' W 004°30'0 0.0
2018-Feb-18 05:01N 48°23' W 004°30'0 0.0
2018-Feb-18 04:31N 48°23' W 004°30'0 0.0
2018-Feb-18 04:01N 48°23' W 004°30'0 0.0
2018-Feb-18 03:31N 48°23' W 004°30'0 0.0
2018-Feb-18 03:00N 48°23' W 004°30'0 0.0
2018-Feb-18 02:30N 48°23' W 004°30'0 0.0
2018-Feb-18 02:00N 48°23' W 004°30'0 0.0
2018-Feb-18 01:30N 48°23' W 004°30'0 0.0
2018-Feb-18 01:01N 48°23' W 004°30'0 0.0
2018-Feb-18 00:30N 48°23' W 004°30'0 0.0
2018-Feb-18 00:00N 48°23' W 004°30'0 0.0
2018-Feb-17 23:30N 48°23' W 004°30'0 0.0
2018-Feb-17 23:00N 48°23' W 004°30'0 0.0
2018-Feb-17 22:30N 48°23' W 004°30'0 0.0
2018-Feb-17 22:01N 48°23' W 004°30'0 0.0
2018-Feb-17 21:30N 48°23' W 004°30'0 0.0
2018-Feb-17 21:00N 48°23' W 004°30'0 0.0
2018-Feb-17 20:30N 48°23' W 004°30'0 0.0
2018-Feb-17 20:01N 48°23' W 004°30'0 0.0
2018-Feb-17 19:31N 48°23' W 004°30'0 0.0
2018-Feb-17 19:00N 48°23' W 004°30'0 0.0
2018-Feb-17 18:30N 48°23' W 004°30'0 0.0
2018-Feb-17 18:00N 48°23' W 004°30'0 0.0
2018-Feb-17 17:30N 48°23' W 004°30'0 0.0
2018-Feb-17 17:00N 48°23' W 004°30'0 0.0
2018-Feb-17 16:30N 48°23' W 004°30'0 0.0
2018-Feb-17 16:01N 48°23' W 004°30'0 0.0
2018-Feb-17 15:31N 48°23' W 004°30'0 0.0
2018-Feb-17 15:00N 48°23' W 004°30'0 0.0
2018-Feb-17 14:31N 48°23' W 004°30'0 0.0
2018-Feb-17 14:00N 48°23' W 004°30'0 0.0
2018-Feb-17 13:30N 48°23' W 004°30'0 0.0
2018-Feb-17 13:00N 48°23' W 004°30'0 0.0
2018-Feb-17 12:30N 48°23' W 004°30'0 0.0
2018-Feb-17 12:00N 48°23' W 004°30'0 0.0
2018-Feb-17 11:30N 48°23' W 004°30'0 0.0
2018-Feb-17 11:00N 48°23' W 004°30'0 0.0
2018-Feb-17 10:31N 48°23' W 004°30'0 0.0
2018-Feb-17 10:00N 48°23' W 004°30'0 0.0
2018-Feb-17 09:30N 48°23' W 004°30'0 0.0
2018-Feb-17 09:00N 48°23' W 004°30'0 0.7
2018-Feb-17 08:31N 48°23' W 004°30'5 9.9
2018-Feb-17 08:01N 48°18' W 004°30'4 7.0
2018-Feb-17 07:30N 48°17' W 004°25'1 1.7
2018-Feb-17 07:00N 48°18' W 004°25'4 7.1
2018-Feb-17 06:31N 48°20' W 004°29'3 5.8
2018-Feb-17 06:01N 48°23' W 004°30'0 0.0
2018-Feb-17 05:30N 48°23' W 004°30'0 0.0
2018-Feb-17 05:01N 48°23' W 004°30'0 0.0
2018-Feb-17 04:30N 48°23' W 004°30'0 0.0
2018-Feb-17 04:00N 48°23' W 004°30'0 0.0
2018-Feb-17 03:30N 48°23' W 004°30'0 0.0
2018-Feb-17 03:00N 48°23' W 004°30'0 0.0
2018-Feb-17 02:30N 48°23' W 004°30'0 0.0
2018-Feb-17 02:00N 48°23' W 004°30'0 0.0
2018-Feb-17 01:31N 48°23' W 004°30'0 0.0
2018-Feb-17 01:00N 48°23' W 004°30'0 0.0
2018-Feb-17 00:31N 48°23' W 004°30'0 0.0
2018-Feb-17 00:00N 48°23' W 004°30'0 0.0
2018-Feb-16 23:31N 48°23' W 004°30'0 0.0
2018-Feb-16 23:00N 48°23' W 004°30'0 0.0
2018-Feb-16 22:31N 48°23' W 004°30'0 0.0
2018-Feb-16 22:00N 48°23' W 004°30'0 0.0
2018-Feb-16 21:30N 48°23' W 004°30'0 0.0
2018-Feb-16 21:00N 48°23' W 004°30'0 0.0
2018-Feb-16 20:30N 48°23' W 004°30'0 0.0
2018-Feb-16 20:00N 48°23' W 004°30'0 0.0
2018-Feb-16 19:30N 48°23' W 004°30'0 0.0
2018-Feb-16 19:00N 48°23' W 004°30'0 0.0
2018-Feb-16 18:31N 48°23' W 004°30'0 0.0
2018-Feb-16 18:00N 48°23' W 004°30'510.5
2018-Feb-16 17:31N 48°18' W 004°30'2 4.7
2018-Feb-16 17:01N 48°19' W 004°27'5 9.2
2018-Feb-16 16:30N 48°23' W 004°30'0 0.4
2018-Feb-16 16:00N 48°23' W 004°30'510.1
2018-Feb-16 15:30N 48°18' W 004°31'4 7.4
2018-Feb-16 15:00N 48°21' W 004°29'2 3.3
2018-Feb-16 14:30N 48°23' W 004°30'0 0.0
2018-Feb-16 14:00N 48°23' W 004°30'0 0.0
2018-Feb-16 13:30N 48°23' W 004°30'0 0.0
2018-Feb-16 13:00N 48°23' W 004°30'0 0.0
2018-Feb-16 12:30N 48°23' W 004°30'0 0.0
2018-Feb-16 12:00N 48°23' W 004°30'0 0.0
2018-Feb-16 11:30N 48°23' W 004°30'0 0.0
2018-Feb-16 11:00N 48°23' W 004°30'0 0.0
2018-Feb-16 10:30N 48°23' W 004°30'0 0.0
2018-Feb-16 10:00N 48°23' W 004°30'0 0.0
2018-Feb-16 09:31N 48°23' W 004°30'0 0.0
2018-Feb-16 09:00N 48°23' W 004°30'0 0.0
2018-Feb-16 08:30N 48°23' W 004°30'0 0.0
2018-Feb-16 08:00N 48°23' W 004°30'0 0.0
2018-Feb-16 07:30N 48°23' W 004°30'510.5
2018-Feb-16 07:00N 48°18' W 004°31'510.1
2018-Feb-16 06:31N 48°23' W 004°30'0 0.5
2018-Feb-16 06:01N 48°23' W 004°30'0 0.2
2018-Feb-16 05:30N 48°23' W 004°30'0 0.0
2018-Feb-16 05:01N 48°23' W 004°30'0 0.0
2018-Feb-16 04:31N 48°23' W 004°30'0 0.0
2018-Feb-16 04:00N 48°23' W 004°30'0 0.0
2018-Feb-16 03:31N 48°23' W 004°30'0 0.0
2018-Feb-16 03:00N 48°23' W 004°30'0 0.0
2018-Feb-16 02:31N 48°23' W 004°30'0 0.0
2018-Feb-16 02:00N 48°23' W 004°30'0 0.0
2018-Feb-16 01:31N 48°23' W 004°30'0 0.0
2018-Feb-16 01:01N 48°23' W 004°30'0 0.0
2018-Feb-16 00:31N 48°23' W 004°30'0 0.0
2018-Feb-16 00:00N 48°23' W 004°30'0 0.0
2018-Feb-15 23:31N 48°23' W 004°30'0 0.0
2018-Feb-15 23:01N 48°23' W 004°30'0 0.0
2018-Feb-15 22:30N 48°23' W 004°30'0 0.0
2018-Feb-15 22:01N 48°23' W 004°30'0 0.0
2018-Feb-15 21:30N 48°23' W 004°30'0 0.0
2018-Feb-15 21:00N 48°23' W 004°30'0 0.0
2018-Feb-15 20:30N 48°23' W 004°30'0 0.0
2018-Feb-15 20:01N 48°23' W 004°30'0 0.0
2018-Feb-15 19:30N 48°23' W 004°30'0 0.0
2018-Feb-15 19:01N 48°23' W 004°30'0 0.0
2018-Feb-15 18:30N 48°23' W 004°30'0 0.0
2018-Feb-15 18:01N 48°23' W 004°30'0 0.0
2018-Feb-15 17:30N 48°23' W 004°30'0 0.0
2018-Feb-15 17:00N 48°23' W 004°30'0 0.0
2018-Feb-15 16:31N 48°23' W 004°30'1 2.0
2018-Feb-15 16:01N 48°22' W 004°29'4 8.6
2018-Feb-15 15:31N 48°18' W 004°31'510.3
2018-Feb-15 15:00N 48°23' W 004°30'0 0.0
2018-Feb-15 14:30N 48°23' W 004°30'0 0.0
2018-Feb-15 14:00N 48°23' W 004°30'0 0.0
2018-Feb-15 13:31N 48°23' W 004°30'0 0.0
2018-Feb-15 13:00N 48°23' W 004°30'0 0.0
2018-Feb-15 12:30N 48°23' W 004°30'0 0.0
2018-Feb-15 12:00N 48°23' W 004°30'0 0.0
2018-Feb-15 11:30N 48°23' W 004°30'510.4
2018-Feb-15 11:00N 48°18' W 004°31'4 7.8
2018-Feb-15 10:31N 48°17' W 004°25'713.4
2018-Feb-15 10:01N 48°23' W 004°30'0 0.0
2018-Feb-15 09:30N 48°23' W 004°30'0 0.0
2018-Feb-15 09:00N 48°23' W 004°30'0 1.0
2018-Feb-15 08:31N 48°23' W 004°30'5 9.6
2018-Feb-15 08:00N 48°18' W 004°31'510.3
2018-Feb-15 07:30N 48°23' W 004°30'5 9.9
2018-Feb-15 07:01N 48°18' W 004°30'1 1.4
2018-Feb-15 06:31N 48°18' W 004°31'510.4
2018-Feb-15 06:00N 48°23' W 004°30'0 0.0
2018-Feb-15 05:30N 48°23' W 004°30'0 0.0
2018-Feb-15 05:00N 48°23' W 004°30'0 0.0
2018-Feb-15 04:30N 48°23' W 004°30'0 0.0
2018-Feb-15 04:00N 48°23' W 004°30'0 0.0
2018-Feb-15 03:30N 48°23' W 004°30'0 0.0
2018-Feb-15 03:00N 48°23' W 004°30'0 0.0
2018-Feb-15 02:30N 48°23' W 004°30'0 0.0
2018-Feb-15 02:00N 48°23' W 004°30'0 0.0
2018-Feb-15 01:30N 48°23' W 004°30'0 0.0
2018-Feb-15 01:00N 48°23' W 004°30'0 0.0
2018-Feb-15 00:30N 48°23' W 004°30'0 0.0
2018-Feb-15 00:00N 48°23' W 004°30'0 0.0
2018-Feb-14 23:30N 48°23' W 004°30'0 0.0
2018-Feb-14 23:00N 48°23' W 004°30'0 0.0
2018-Feb-14 22:30N 48°23' W 004°30'0 0.0
2018-Feb-14 22:00N 48°23' W 004°30'0 0.0
2018-Feb-14 21:30N 48°23' W 004°30'0 0.0
2018-Feb-14 21:00N 48°23' W 004°30'0 0.0
2018-Feb-14 20:30N 48°23' W 004°30'0 0.0
2018-Feb-14 20:00N 48°23' W 004°30'0 0.0
2018-Feb-14 19:30N 48°23' W 004°30'0 0.0
2018-Feb-14 19:00N 48°23' W 004°30'0 0.0
2018-Feb-14 18:30N 48°23' W 004°30'0 0.0
2018-Feb-14 18:00N 48°23' W 004°30'0 0.0
2018-Feb-14 17:30N 48°23' W 004°30'0 0.0
2018-Feb-14 17:01N 48°23' W 004°30'0 0.0
2018-Feb-14 16:30N 48°23' W 004°30'1 2.3
2018-Feb-14 16:00N 48°22' W 004°29'4 8.3
2018-Feb-14 15:30N 48°18' W 004°31'510.4
2018-Feb-14 15:00N 48°23' W 004°30'0 0.0
2018-Feb-14 14:30N 48°23' W 004°30'0 0.0
2018-Feb-14 14:00N 48°23' W 004°30'0 0.0
2018-Feb-14 13:30N 48°23' W 004°30'0 0.0
2018-Feb-14 13:00N 48°23' W 004°30'0 0.0
2018-Feb-14 12:30N 48°23' W 004°30'0 0.0
2018-Feb-14 12:00N 48°23' W 004°30'0 0.0
2018-Feb-14 11:30N 48°23' W 004°30'510.5
2018-Feb-14 11:00N 48°18' W 004°31'4 7.9
2018-Feb-14 10:31N 48°17' W 004°25'713.5
2018-Feb-14 10:01N 48°23' W 004°30'0 0.0
2018-Feb-14 09:31N 48°23' W 004°30'0 0.0
2018-Feb-14 09:00N 48°23' W 004°30'1 1.7
2018-Feb-14 08:31N 48°22' W 004°29'4 8.9
2018-Feb-14 08:01N 48°18' W 004°31'510.4
2018-Feb-14 07:30N 48°23' W 004°30'510.1
2018-Feb-14 07:00N 48°18' W 004°30'0 0.5
2018-Feb-14 06:31N 48°18' W 004°30'510.3
2018-Feb-14 06:00N 48°23' W 004°30'0 0.0
2018-Feb-14 05:30N 48°23' W 004°30'0 0.0
2018-Feb-14 05:00N 48°23' W 004°30'0 0.0
2018-Feb-14 04:30N 48°23' W 004°30'0 0.0
2018-Feb-14 04:00N 48°23' W 004°30'0 0.0
2018-Feb-14 03:30N 48°23' W 004°30'0 0.0
2018-Feb-14 03:00N 48°23' W 004°30'0 0.0
2018-Feb-14 02:30N 48°23' W 004°30'0 0.0
2018-Feb-14 02:00N 48°23' W 004°30'0 0.0
2018-Feb-14 01:30N 48°23' W 004°30'0 0.0
2018-Feb-14 01:00N 48°23' W 004°30'0 0.0
2018-Feb-14 00:30N 48°23' W 004°30'0 0.0
2018-Feb-14 00:00N 48°23' W 004°30'0 0.0
2018-Feb-13 23:30N 48°23' W 004°30'0 0.0
2018-Feb-13 23:01N 48°23' W 004°30'0 0.0
2018-Feb-13 22:30N 48°23' W 004°30'0 0.0
2018-Feb-13 22:00N 48°23' W 004°30'0 0.0
2018-Feb-13 21:30N 48°23' W 004°30'0 0.0
2018-Feb-13 21:00N 48°23' W 004°30'0 0.0
2018-Feb-13 20:30N 48°23' W 004°30'0 0.0
2018-Feb-13 20:00N 48°23' W 004°30'0 0.0
2018-Feb-13 19:30N 48°23' W 004°30'0 0.0
2018-Feb-13 19:00N 48°23' W 004°30'0 0.0
2018-Feb-13 18:30N 48°23' W 004°30'0 0.0
2018-Feb-13 18:00N 48°23' W 004°30'0 0.0
2018-Feb-13 17:30N 48°23' W 004°30'0 0.0
2018-Feb-13 17:00N 48°23' W 004°30'0 0.0
2018-Feb-13 16:30N 48°23' W 004°30'1 2.1
2018-Feb-13 16:00N 48°22' W 004°29'4 8.6
2018-Feb-13 15:31N 48°18' W 004°31'510.3
2018-Feb-13 15:00N 48°23' W 004°30'0 0.1
2018-Feb-13 14:30N 48°23' W 004°30'0 0.0
2018-Feb-13 14:00N 48°23' W 004°30'0 0.0
2018-Feb-13 13:30N 48°23' W 004°30'0 0.0
2018-Feb-13 13:01N 48°23' W 004°30'0 0.0
2018-Feb-13 12:31N 48°23' W 004°30'0 0.0
2018-Feb-13 12:01N 48°23' W 004°30'0 0.0
2018-Feb-13 11:30N 48°23' W 004°30'510.5
2018-Feb-13 11:00N 48°18' W 004°31'4 7.8
2018-Feb-13 10:30N 48°17' W 004°25'713.4
2018-Feb-13 10:00N 48°23' W 004°30'0 0.0
2018-Feb-13 09:30N 48°23' W 004°30'0 0.0
2018-Feb-13 09:00N 48°23' W 004°30'1 1.7
2018-Feb-13 08:30N 48°22' W 004°29'4 8.9
2018-Feb-13 08:00N 48°18' W 004°31'510.4
2018-Feb-13 07:30N 48°23' W 004°30'510.0
2018-Feb-13 07:00N 48°18' W 004°30'1 1.2
2018-Feb-13 06:30N 48°18' W 004°30'510.4
2018-Feb-13 06:01N 48°23' W 004°30'0 0.0
2018-Feb-13 05:30N 48°23' W 004°30'0 0.0
2018-Feb-13 05:00N 48°23' W 004°30'0 0.0
2018-Feb-13 04:30N 48°23' W 004°30'0 0.0
2018-Feb-13 04:00N 48°23' W 004°30'0 0.0
2018-Feb-13 03:31N 48°23' W 004°30'0 0.0
2018-Feb-13 03:00N 48°23' W 004°30'0 0.0
2018-Feb-13 02:31N 48°23' W 004°30'0 0.0
2018-Feb-13 02:00N 48°23' W 004°30'0 0.0
2018-Feb-13 01:30N 48°23' W 004°30'0 0.0
2018-Feb-13 01:01N 48°23' W 004°30'0 0.0
2018-Feb-13 00:30N 48°23' W 004°30'0 0.0
2018-Feb-13 00:00N 48°23' W 004°30'0 0.0
2018-Feb-12 23:30N 48°23' W 004°30'0 0.0
2018-Feb-12 23:01N 48°23' W 004°30'0 0.0
2018-Feb-12 22:30N 48°23' W 004°30'0 0.0
2018-Feb-12 22:00N 48°23' W 004°30'0 0.0
2018-Feb-12 21:30N 48°23' W 004°30'0 0.0
2018-Feb-12 21:00N 48°23' W 004°30'0 0.0
2018-Feb-12 20:30N 48°23' W 004°30'0 0.0
2018-Feb-12 20:01N 48°23' W 004°30'0 0.0
2018-Feb-12 19:30N 48°23' W 004°30'0 0.0
2018-Feb-12 19:00N 48°23' W 004°30'0 0.0
2018-Feb-12 18:31N 48°23' W 004°30'0 0.0
2018-Feb-12 18:01N 48°23' W 004°30'0 0.0
2018-Feb-12 17:30N 48°23' W 004°30'0 0.0
2018-Feb-12 17:00N 48°23' W 004°30'0 0.0
2018-Feb-12 16:30N 48°23' W 004°30'1 2.0
2018-Feb-12 16:00N 48°22' W 004°29'4 8.7
2018-Feb-12 15:30N 48°18' W 004°31'510.4
2018-Feb-12 15:00N 48°23' W 004°30'0 0.0
2018-Feb-12 14:30N 48°23' W 004°30'0 0.0
2018-Feb-12 14:01N 48°23' W 004°30'0 0.0
2018-Feb-12 13:31N 48°23' W 004°30'0 0.0
2018-Feb-12 13:00N 48°23' W 004°30'0 0.0
2018-Feb-12 12:31N 48°23' W 004°30'0 0.0
2018-Feb-12 12:00N 48°23' W 004°30'0 0.0
2018-Feb-12 11:30N 48°23' W 004°30'510.4
2018-Feb-12 11:00N 48°18' W 004°31'4 7.9
2018-Feb-12 10:30N 48°17' W 004°25'713.5
2018-Feb-12 10:00N 48°23' W 004°30'0 0.0
2018-Feb-12 09:30N 48°23' W 004°30'0 0.0
2018-Feb-12 09:00N 48°23' W 004°30'1 1.4
2018-Feb-12 08:30N 48°22' W 004°29'5 9.2
2018-Feb-12 08:00N 48°18' W 004°31'510.4
2018-Feb-12 07:30N 48°23' W 004°30'5 9.9
2018-Feb-12 07:01N 48°18' W 004°30'1 1.1
2018-Feb-12 06:30N 48°18' W 004°30'510.4
2018-Feb-12 06:01N 48°23' W 004°30'0 0.0
2018-Feb-12 05:31N 48°23' W 004°30'0 0.0
2018-Feb-12 05:00N 48°23' W 004°30'0 0.0
2018-Feb-12 04:31N 48°23' W 004°30'0 0.0
2018-Feb-12 04:01N 48°23' W 004°30'0 0.0
2018-Feb-12 03:30N 48°23' W 004°30'0 0.0
2018-Feb-12 03:01N 48°23' W 004°30'0 0.0
2018-Feb-12 02:31N 48°23' W 004°30'0 0.0
2018-Feb-12 02:01N 48°23' W 004°30'0 0.0
2018-Feb-12 01:30N 48°23' W 004°30'0 0.0
2018-Feb-12 01:01N 48°23' W 004°30'0 0.0
2018-Feb-12 00:30N 48°23' W 004°30'0 0.0
2018-Feb-12 00:00N 48°23' W 004°30'0 0.0
2018-Feb-11 23:31N 48°23' W 004°30'0 0.0
2018-Feb-11 23:01N 48°23' W 004°30'0 0.0
2018-Feb-11 22:31N 48°23' W 004°30'0 0.0
2018-Feb-11 22:01N 48°23' W 004°30'0 0.0
2018-Feb-11 21:31N 48°23' W 004°30'0 0.0
2018-Feb-11 21:00N 48°23' W 004°30'0 0.0
2018-Feb-11 20:30N 48°23' W 004°30'0 0.0
2018-Feb-11 20:01N 48°23' W 004°30'0 0.0
2018-Feb-11 19:31N 48°23' W 004°30'0 0.0
2018-Feb-11 19:00N 48°23' W 004°30'  
Track history (hours):
 
Tides and Currents Weather Stations Pressure Air Temp Water Temp Dewpoint Dewpoint Depression Visibility Wind Speed Wind Dir Waves Ship Positions

Tibidy

Last reported at 2018-Feb-21 19:00 UTC. Time now 2018-Feb-21 19:15 UTC.
Position N 48°23' W 004°30'.

Length 34 m.

Type: Passenger vessel. MMSI: 227574020.

Date/timePositionNaut miles runAvg speedWind from/ knotsBaromVisibWave heightAir tempDewpointWater temp
2018-Feb-21 19:00N 48°23' W 004°30'0 0.0
2018-Feb-21 18:30N 48°23' W 004°30'0 0.5
2018-Feb-21 18:00N 48°23' W 004°30'5 9.9
2018-Feb-21 17:30N 48°18' W 004°30'2 4.1
2018-Feb-21 17:01N 48°19' W 004°27'5 9.4
2018-Feb-21 16:31N 48°23' W 004°30'0 0.6
2018-Feb-21 16:00N 48°23' W 004°30'5 9.9
2018-Feb-21 15:31N 48°18' W 004°31'4 8.4
2018-Feb-21 15:01N 48°22' W 004°29'1 2.3
2018-Feb-21 14:30N 48°23' W 004°30'0 0.0
2018-Feb-21 14:00N 48°23' W 004°30'0 0.0
2018-Feb-21 13:31N 48°23' W 004°30'0 0.0
2018-Feb-21 13:01N 48°23' W 004°30'0 0.0
2018-Feb-21 12:30N 48°23' W 004°30'0 0.0
2018-Feb-21 12:00N 48°23' W 004°30'0 0.0
2018-Feb-21 11:30N 48°23' W 004°30'0 0.0
2018-Feb-21 11:00N 48°23' W 004°30'0 0.0
2018-Feb-21 10:30N 48°23' W 004°30'0 0.0
2018-Feb-21 10:00N 48°23' W 004°30'0 0.0
2018-Feb-21 09:30N 48°23' W 004°30'0 0.0
2018-Feb-21 09:00N 48°23' W 004°30'0 0.0
2018-Feb-21 08:30N 48°23' W 004°30'0 0.0
2018-Feb-21 08:00N 48°23' W 004°30'0 0.0
2018-Feb-21 07:31N 48°23' W 004°30'510.5
2018-Feb-21 07:00N 48°18' W 004°31'510.0
2018-Feb-21 06:30N 48°23' W 004°30'0 0.6
2018-Feb-21 06:01N 48°23' W 004°30'0 0.0
2018-Feb-21 05:31N 48°23' W 004°30'0 0.0
2018-Feb-21 05:01N 48°23' W 004°30'0 0.0
2018-Feb-21 04:30N 48°23' W 004°30'0 0.0
2018-Feb-21 04:01N 48°23' W 004°30'0 0.0
2018-Feb-21 03:31N 48°23' W 004°30'0 0.0
2018-Feb-21 03:01N 48°23' W 004°30'0 0.0
2018-Feb-21 02:31N 48°23' W 004°30'0 0.0
2018-Feb-21 02:01N 48°23' W 004°30'0 0.0
2018-Feb-21 01:30N 48°23' W 004°30'0 0.0
2018-Feb-21 01:00N 48°23' W 004°30'0 0.0
2018-Feb-21 00:30N 48°23' W 004°30'0 0.0
2018-Feb-21 00:01N 48°23' W 004°30'0 0.0
2018-Feb-20 23:31N 48°23' W 004°30'0 0.0
2018-Feb-20 23:01N 48°23' W 004°30'0 0.0
2018-Feb-20 22:31N 48°23' W 004°30'0 0.0
2018-Feb-20 22:00N 48°23' W 004°30'0 0.0
2018-Feb-20 21:31N 48°23' W 004°30'0 0.0
2018-Feb-20 21:00N 48°23' W 004°30'0 0.0
2018-Feb-20 20:31N 48°23' W 004°30'0 0.0
2018-Feb-20 20:01N 48°23' W 004°30'0 0.0
2018-Feb-20 19:31N 48°23' W 004°30'0 0.0
2018-Feb-20 19:01N 48°23' W 004°30'0 0.0
2018-Feb-20 18:31N 48°23' W 004°30'0 0.4
2018-Feb-20 18:01N 48°23' W 004°30'510.0
2018-Feb-20 17:30N 48°18' W 004°30'2 4.5
2018-Feb-20 17:01N 48°19' W 004°27'5 9.8
2018-Feb-20 16:30N 48°23' W 004°30'0 0.7
2018-Feb-20 16:00N 48°23' W 004°30'5 9.9
2018-Feb-20 15:30N 48°18' W 004°31'3 7.0
2018-Feb-20 15:00N 48°21' W 004°29'2 3.8
2018-Feb-20 14:30N 48°23' W 004°30'0 0.0
2018-Feb-20 14:00N 48°23' W 004°30'0 0.0
2018-Feb-20 13:30N 48°23' W 004°30'0 0.0
2018-Feb-20 13:01N 48°23' W 004°30'0 0.0
2018-Feb-20 12:30N 48°23' W 004°30'0 0.0
2018-Feb-20 12:01N 48°23' W 004°30'0 0.0
2018-Feb-20 11:31N 48°23' W 004°30'0 0.0
2018-Feb-20 11:00N 48°23' W 004°30'0 0.0
2018-Feb-20 10:30N 48°23' W 004°30'0 0.0
2018-Feb-20 08:58N 48°23' W 004°30'0 0.0
2018-Feb-20 08:30N 48°23' W 004°30'0 0.0
2018-Feb-20 08:00N 48°23' W 004°30'0 0.0
2018-Feb-20 07:31N 48°23' W 004°30'510.5
2018-Feb-20 07:00N 48°18' W 004°31'510.1
2018-Feb-20 06:31N 48°23' W 004°30'0 0.5
2018-Feb-20 06:00N 48°23' W 004°30'0 0.0
2018-Feb-20 05:31N 48°23' W 004°30'0 0.0
2018-Feb-20 05:00N 48°23' W 004°30'0 0.0
2018-Feb-20 04:30N 48°23' W 004°30'0 0.0
2018-Feb-20 04:01N 48°23' W 004°30'0 0.0
2018-Feb-20 03:31N 48°23' W 004°30'0 0.0
2018-Feb-20 03:00N 48°23' W 004°30'0 0.0
2018-Feb-20 02:31N 48°23' W 004°30'0 0.0
2018-Feb-20 02:00N 48°23' W 004°30'0 0.0
2018-Feb-20 01:30N 48°23' W 004°30'0 0.0
2018-Feb-20 01:00N 48°23' W 004°30'0 0.0
2018-Feb-20 00:30N 48°23' W 004°30'0 0.0
2018-Feb-20 00:00N 48°23' W 004°30'0 0.0
2018-Feb-19 23:30N 48°23' W 004°30'0 0.0
2018-Feb-19 23:00N 48°23' W 004°30'0 0.0
2018-Feb-19 22:30N 48°23' W 004°30'0 0.0
2018-Feb-19 22:01N 48°23' W 004°30'0 0.0
2018-Feb-19 21:30N 48°23' W 004°30'0 0.0
2018-Feb-19 21:00N 48°23' W 004°30'0 0.0
2018-Feb-19 20:31N 48°23' W 004°30'0 0.0
2018-Feb-19 20:00N 48°23' W 004°30'0 0.0
2018-Feb-19 19:30N 48°23' W 004°30'0 0.0
2018-Feb-19 19:00N 48°23' W 004°30'0 0.0
2018-Feb-19 18:31N 48°23' W 004°30'0 0.7
2018-Feb-19 18:01N 48°23' W 004°30'5 9.7
2018-Feb-19 17:30N 48°18' W 004°30'2 3.9
2018-Feb-19 17:00N 48°19' W 004°27'5 9.2
2018-Feb-19 16:30N 48°23' W 004°30'0 0.6
2018-Feb-19 16:00N 48°23' W 004°30'510.0
2018-Feb-19 15:31N 48°18' W 004°31'4 7.7
2018-Feb-19 15:01N 48°22' W 004°29'2 3.0
2018-Feb-19 14:30N 48°23' W 004°30'0 0.0
2018-Feb-19 14:00N 48°23' W 004°30'0 0.0
2018-Feb-19 13:30N 48°23' W 004°30'0 0.0
2018-Feb-19 13:00N 48°23' W 004°30'0 0.0
2018-Feb-19 12:30N 48°23' W 004°30'0 0.0
2018-Feb-19 12:00N 48°23' W 004°30'0 0.0
2018-Feb-19 11:30N 48°23' W 004°30'0 0.0
2018-Feb-19 11:01N 48°23' W 004°30'0 0.0
2018-Feb-19 10:30N 48°23' W 004°30'0 0.0
2018-Feb-19 10:00N 48°23' W 004°30'0 0.0
2018-Feb-19 09:30N 48°23' W 004°30'0 0.0
2018-Feb-19 09:00N 48°23' W 004°30'0 0.0
2018-Feb-19 08:31N 48°23' W 004°30'1 2.0
2018-Feb-19 08:00N 48°22' W 004°31'1 2.0
2018-Feb-19 07:30N 48°23' W 004°30'510.5
2018-Feb-19 07:00N 48°18' W 004°31'510.1
2018-Feb-19 06:30N 48°23' W 004°30'0 0.5
2018-Feb-19 06:01N 48°23' W 004°30'0 0.0
2018-Feb-19 05:31N 48°23' W 004°30'0 0.0
2018-Feb-19 05:01N 48°23' W 004°30'0 0.0
2018-Feb-19 04:30N 48°23' W 004°30'0 0.0
2018-Feb-19 04:00N 48°23' W 004°30'0 0.0
2018-Feb-19 03:30N 48°23' W 004°30'0 0.0
2018-Feb-19 03:00N 48°23' W 004°30'0 0.0
2018-Feb-19 02:30N 48°23' W 004°30'0 0.0
2018-Feb-19 02:00N 48°23' W 004°30'0 0.0
2018-Feb-19 01:30N 48°23' W 004°30'0 0.0
2018-Feb-19 01:00N 48°23' W 004°30'0 0.0
2018-Feb-19 00:30N 48°23' W 004°30'0 0.0
2018-Feb-19 00:01N 48°23' W 004°30'0 0.0
2018-Feb-18 23:30N 48°23' W 004°30'0 0.0
2018-Feb-18 23:00N 48°23' W 004°30'0 0.0
2018-Feb-18 22:30N 48°23' W 004°30'0 0.0
2018-Feb-18 22:00N 48°23' W 004°30'0 0.0
2018-Feb-18 21:30N 48°23' W 004°30'0 0.0
2018-Feb-18 21:00N 48°23' W 004°30'0 0.0
2018-Feb-18 20:30N 48°23' W 004°30'0 0.0
2018-Feb-18 20:00N 48°23' W 004°30'0 0.0
2018-Feb-18 19:30N 48°23' W 004°30'0 0.0
2018-Feb-18 19:01N 48°23' W 004°30'0 0.0
2018-Feb-18 18:30N 48°23' W 004°30'0 0.0
2018-Feb-18 18:01N 48°23' W 004°30'0 0.0
2018-Feb-18 17:30N 48°23' W 004°30'0 0.0
2018-Feb-18 17:00N 48°23' W 004°30'0 0.0
2018-Feb-18 16:30N 48°23' W 004°30'0 0.0
2018-Feb-18 16:00N 48°23' W 004°30'0 0.0
2018-Feb-18 15:30N 48°23' W 004°30'0 0.0
2018-Feb-18 15:00N 48°23' W 004°30'0 0.0
2018-Feb-18 14:30N 48°23' W 004°30'0 0.0
2018-Feb-18 14:00N 48°23' W 004°30'0 0.0
2018-Feb-18 13:30N 48°23' W 004°30'0 0.0
2018-Feb-18 13:00N 48°23' W 004°30'0 0.0
2018-Feb-18 12:30N 48°23' W 004°30'0 0.0
2018-Feb-18 12:01N 48°23' W 004°30'0 0.0
2018-Feb-18 11:30N 48°23' W 004°30'0 0.0
2018-Feb-18 11:00N 48°23' W 004°30'0 0.0
2018-Feb-18 10:30N 48°23' W 004°30'0 0.0
2018-Feb-18 10:00N 48°23' W 004°30'0 0.0
2018-Feb-18 09:30N 48°23' W 004°30'0 0.0
2018-Feb-18 09:00N 48°23' W 004°30'0 0.8
2018-Feb-18 08:30N 48°23' W 004°30'5 9.8
2018-Feb-18 08:00N 48°18' W 004°30'3 6.9
2018-Feb-18 07:31N 48°17' W 004°25'1 1.9
2018-Feb-18 07:00N 48°18' W 004°26'3 6.6
2018-Feb-18 06:31N 48°20' W 004°29'3 5.8
2018-Feb-18 06:00N 48°23' W 004°30'0 0.0
2018-Feb-18 05:30N 48°23' W 004°30'0 0.0
2018-Feb-18 05:01N 48°23' W 004°30'0 0.0
2018-Feb-18 04:31N 48°23' W 004°30'0 0.0
2018-Feb-18 04:01N 48°23' W 004°30'0 0.0
2018-Feb-18 03:31N 48°23' W 004°30'0 0.0
2018-Feb-18 03:00N 48°23' W 004°30'0 0.0
2018-Feb-18 02:30N 48°23' W 004°30'0 0.0
2018-Feb-18 02:00N 48°23' W 004°30'0 0.0
2018-Feb-18 01:30N 48°23' W 004°30'0 0.0
2018-Feb-18 01:01N 48°23' W 004°30'0 0.0
2018-Feb-18 00:30N 48°23' W 004°30'0 0.0
2018-Feb-18 00:00N 48°23' W 004°30'0 0.0
2018-Feb-17 23:30N 48°23' W 004°30'0 0.0
2018-Feb-17 23:00N 48°23' W 004°30'0 0.0
2018-Feb-17 22:30N 48°23' W 004°30'0 0.0
2018-Feb-17 22:01N 48°23' W 004°30'0 0.0
2018-Feb-17 21:30N 48°23' W 004°30'0 0.0
2018-Feb-17 21:00N 48°23' W 004°30'0 0.0
2018-Feb-17 20:30N 48°23' W 004°30'0 0.0
2018-Feb-17 20:01N 48°23' W 004°30'0 0.0
2018-Feb-17 19:31N 48°23' W 004°30'0 0.0
2018-Feb-17 19:00N 48°23' W 004°30'0 0.0
2018-Feb-17 18:30N 48°23' W 004°30'0 0.0
2018-Feb-17 18:00N 48°23' W 004°30'0 0.0
2018-Feb-17 17:30N 48°23' W 004°30'0 0.0
2018-Feb-17 17:00N 48°23' W 004°30'0 0.0
2018-Feb-17 16:30N 48°23' W 004°30'0 0.0
2018-Feb-17 16:01N 48°23' W 004°30'0 0.0
2018-Feb-17 15:31N 48°23' W 004°30'0 0.0
2018-Feb-17 15:00N 48°23' W 004°30'0 0.0
2018-Feb-17 14:31N 48°23' W 004°30'0 0.0
2018-Feb-17 14:00N 48°23' W 004°30'0 0.0
2018-Feb-17 13:30N 48°23' W 004°30'0 0.0
2018-Feb-17 13:00N 48°23' W 004°30'0 0.0
2018-Feb-17 12:30N 48°23' W 004°30'0 0.0
2018-Feb-17 12:00N 48°23' W 004°30'0 0.0
2018-Feb-17 11:30N 48°23' W 004°30'0 0.0
2018-Feb-17 11:00N 48°23' W 004°30'0 0.0
2018-Feb-17 10:31N 48°23' W 004°30'0 0.0
2018-Feb-17 10:00N 48°23' W 004°30'0 0.0
2018-Feb-17 09:30N 48°23' W 004°30'0 0.0
2018-Feb-17 09:00N 48°23' W 004°30'0 0.7
2018-Feb-17 08:31N 48°23' W 004°30'5 9.9
2018-Feb-17 08:01N 48°18' W 004°30'4 7.0
2018-Feb-17 07:30N 48°17' W 004°25'1 1.7
2018-Feb-17 07:00N 48°18' W 004°25'4 7.1
2018-Feb-17 06:31N 48°20' W 004°29'3 5.8
2018-Feb-17 06:01N 48°23' W 004°30'0 0.0
2018-Feb-17 05:30N 48°23' W 004°30'0 0.0
2018-Feb-17 05:01N 48°23' W 004°30'0 0.0
2018-Feb-17 04:30N 48°23' W 004°30'0 0.0
2018-Feb-17 04:00N 48°23' W 004°30'0 0.0
2018-Feb-17 03:30N 48°23' W 004°30'0 0.0
2018-Feb-17 03:00N 48°23' W 004°30'0 0.0
2018-Feb-17 02:30N 48°23' W 004°30'0 0.0
2018-Feb-17 02:00N 48°23' W 004°30'0 0.0
2018-Feb-17 01:31N 48°23' W 004°30'0 0.0
2018-Feb-17 01:00N 48°23' W 004°30'0 0.0
2018-Feb-17 00:31N 48°23' W 004°30'0 0.0
2018-Feb-17 00:00N 48°23' W 004°30'0 0.0
2018-Feb-16 23:31N 48°23' W 004°30'0 0.0
2018-Feb-16 23:00N 48°23' W 004°30'0 0.0
2018-Feb-16 22:31N 48°23' W 004°30'0 0.0
2018-Feb-16 22:00N 48°23' W 004°30'0 0.0
2018-Feb-16 21:30N 48°23' W 004°30'0 0.0
2018-Feb-16 21:00N 48°23' W 004°30'0 0.0
2018-Feb-16 20:30N 48°23' W 004°30'0 0.0
2018-Feb-16 20:00N 48°23' W 004°30'0 0.0
2018-Feb-16 19:30N 48°23' W 004°30'0 0.0
2018-Feb-16 19:00N 48°23' W 004°30'0 0.0
2018-Feb-16 18:31N 48°23' W 004°30'0 0.0
2018-Feb-16 18:00N 48°23' W 004°30'510.5
2018-Feb-16 17:31N 48°18' W 004°30'2 4.7
2018-Feb-16 17:01N 48°19' W 004°27'5 9.2
2018-Feb-16 16:30N 48°23' W 004°30'0 0.4
2018-Feb-16 16:00N 48°23' W 004°30'510.1
2018-Feb-16 15:30N 48°18' W 004°31'4 7.4
2018-Feb-16 15:00N 48°21' W 004°29'2 3.3
2018-Feb-16 14:30N 48°23' W 004°30'0 0.0
2018-Feb-16 14:00N 48°23' W 004°30'0 0.0
2018-Feb-16 13:30N 48°23' W 004°30'0 0.0
2018-Feb-16 13:00N 48°23' W 004°30'0 0.0
2018-Feb-16 12:30N 48°23' W 004°30'0 0.0
2018-Feb-16 12:00N 48°23' W 004°30'0 0.0
2018-Feb-16 11:30N 48°23' W 004°30'0 0.0
2018-Feb-16 11:00N 48°23' W 004°30'0 0.0
2018-Feb-16 10:30N 48°23' W 004°30'0 0.0
2018-Feb-16 10:00N 48°23' W 004°30'0 0.0
2018-Feb-16 09:31N 48°23' W 004°30'0 0.0
2018-Feb-16 09:00N 48°23' W 004°30'0 0.0
2018-Feb-16 08:30N 48°23' W 004°30'0 0.0
2018-Feb-16 08:00N 48°23' W 004°30'0 0.0
2018-Feb-16 07:30N 48°23' W 004°30'510.5
2018-Feb-16 07:00N 48°18' W 004°31'510.1
2018-Feb-16 06:31N 48°23' W 004°30'0 0.5
2018-Feb-16 06:01N 48°23' W 004°30'0 0.2
2018-Feb-16 05:30N 48°23' W 004°30'0 0.0
2018-Feb-16 05:01N 48°23' W 004°30'0 0.0
2018-Feb-16 04:31N 48°23' W 004°30'0 0.0
2018-Feb-16 04:00N 48°23' W 004°30'0 0.0
2018-Feb-16 03:31N 48°23' W 004°30'0 0.0
2018-Feb-16 03:00N 48°23' W 004°30'0 0.0
2018-Feb-16 02:31N 48°23' W 004°30'0 0.0
2018-Feb-16 02:00N 48°23' W 004°30'0 0.0
2018-Feb-16 01:31N 48°23' W 004°30'0 0.0
2018-Feb-16 01:01N 48°23' W 004°30'0 0.0
2018-Feb-16 00:31N 48°23' W 004°30'0 0.0
2018-Feb-16 00:00N 48°23' W 004°30'0 0.0
2018-Feb-15 23:31N 48°23' W 004°30'0 0.0
2018-Feb-15 23:01N 48°23' W 004°30'0 0.0
2018-Feb-15 22:30N 48°23' W 004°30'0 0.0
2018-Feb-15 22:01N 48°23' W 004°30'0 0.0
2018-Feb-15 21:30N 48°23' W 004°30'0 0.0
2018-Feb-15 21:00N 48°23' W 004°30'0 0.0
2018-Feb-15 20:30N 48°23' W 004°30'0 0.0
2018-Feb-15 20:01N 48°23' W 004°30'0 0.0
2018-Feb-15 19:30N 48°23' W 004°30'0 0.0
2018-Feb-15 19:01N 48°23' W 004°30'0 0.0
2018-Feb-15 18:30N 48°23' W 004°30'0 0.0
2018-Feb-15 18:01N 48°23' W 004°30'0 0.0
2018-Feb-15 17:30N 48°23' W 004°30'0 0.0
2018-Feb-15 17:00N 48°23' W 004°30'0 0.0
2018-Feb-15 16:31N 48°23' W 004°30'1 2.0
2018-Feb-15 16:01N 48°22' W 004°29'4 8.6
2018-Feb-15 15:31N 48°18' W 004°31'510.3
2018-Feb-15 15:00N 48°23' W 004°30'0 0.0
2018-Feb-15 14:30N 48°23' W 004°30'0 0.0
2018-Feb-15 14:00N 48°23' W 004°30'0 0.0
2018-Feb-15 13:31N 48°23' W 004°30'0 0.0
2018-Feb-15 13:00N 48°23' W 004°30'0 0.0
2018-Feb-15 12:30N 48°23' W 004°30'0 0.0
2018-Feb-15 12:00N 48°23' W 004°30'0 0.0
2018-Feb-15 11:30N 48°23' W 004°30'510.4
2018-Feb-15 11:00N 48°18' W 004°31'4 7.8
2018-Feb-15 10:31N 48°17' W 004°25'713.4
2018-Feb-15 10:01N 48°23' W 004°30'0 0.0
2018-Feb-15 09:30N 48°23' W 004°30'0 0.0
2018-Feb-15 09:00N 48°23' W 004°30'0 1.0
2018-Feb-15 08:31N 48°23' W 004°30'5 9.6
2018-Feb-15 08:00N 48°18' W 004°31'510.3
2018-Feb-15 07:30N 48°23' W 004°30'5 9.9
2018-Feb-15 07:01N 48°18' W 004°30'1 1.4
2018-Feb-15 06:31N 48°18' W 004°31'510.4
2018-Feb-15 06:00N 48°23' W 004°30'0 0.0
2018-Feb-15 05:30N 48°23' W 004°30'0 0.0
2018-Feb-15 05:00N 48°23' W 004°30'0 0.0
2018-Feb-15 04:30N 48°23' W 004°30'0 0.0
2018-Feb-15 04:00N 48°23' W 004°30'0 0.0
2018-Feb-15 03:30N 48°23' W 004°30'0 0.0
2018-Feb-15 03:00N 48°23' W 004°30'0 0.0
2018-Feb-15 02:30N 48°23' W 004°30'0 0.0
2018-Feb-15 02:00N 48°23' W 004°30'0 0.0
2018-Feb-15 01:30N 48°23' W 004°30'0 0.0
2018-Feb-15 01:00N 48°23' W 004°30'0 0.0
2018-Feb-15 00:30N 48°23' W 004°30'0 0.0
2018-Feb-15 00:00N 48°23' W 004°30'0 0.0
2018-Feb-14 23:30N 48°23' W 004°30'0 0.0
2018-Feb-14 23:00N 48°23' W 004°30'0 0.0
2018-Feb-14 22:30N 48°23' W 004°30'0 0.0
2018-Feb-14 22:00N 48°23' W 004°30'0 0.0
2018-Feb-14 21:30N 48°23' W 004°30'0 0.0
2018-Feb-14 21:00N 48°23' W 004°30'0 0.0
2018-Feb-14 20:30N 48°23' W 004°30'0 0.0
2018-Feb-14 20:00N 48°23' W 004°30'0 0.0
2018-Feb-14 19:30N 48°23' W 004°30'0 0.0
2018-Feb-14 19:00N 48°23' W 004°30'0 0.0
2018-Feb-14 18:30N 48°23' W 004°30'0 0.0
2018-Feb-14 18:00N 48°23' W 004°30'0 0.0
2018-Feb-14 17:30N 48°23' W 004°30'0 0.0
2018-Feb-14 17:01N 48°23' W 004°30'0 0.0
2018-Feb-14 16:30N 48°23' W 004°30'1 2.3
2018-Feb-14 16:00N 48°22' W 004°29'4 8.3
2018-Feb-14 15:30N 48°18' W 004°31'510.4
2018-Feb-14 15:00N 48°23' W 004°30'0 0.0
2018-Feb-14 14:30N 48°23' W 004°30'0 0.0
2018-Feb-14 14:00N 48°23' W 004°30'0 0.0
2018-Feb-14 13:30N 48°23' W 004°30'0 0.0
2018-Feb-14 13:00N 48°23' W 004°30'0 0.0
2018-Feb-14 12:30N 48°23' W 004°30'0 0.0
2018-Feb-14 12:00N 48°23' W 004°30'0 0.0
2018-Feb-14 11:30N 48°23' W 004°30'510.5
2018-Feb-14 11:00N 48°18' W 004°31'4 7.9
2018-Feb-14 10:31N 48°17' W 004°25'713.5
2018-Feb-14 10:01N 48°23' W 004°30'0 0.0
2018-Feb-14 09:31N 48°23' W 004°30'0 0.0
2018-Feb-14 09:00N 48°23' W 004°30'1 1.7
2018-Feb-14 08:31N 48°22' W 004°29'4 8.9
2018-Feb-14 08:01N 48°18' W 004°31'510.4
2018-Feb-14 07:30N 48°23' W 004°30'510.1
2018-Feb-14 07:00N 48°18' W 004°30'0 0.5
2018-Feb-14 06:31N 48°18' W 004°30'510.3
2018-Feb-14 06:00N 48°23' W 004°30'0 0.0
2018-Feb-14 05:30N 48°23' W 004°30'0 0.0
2018-Feb-14 05:00N 48°23' W 004°30'0 0.0
2018-Feb-14 04:30N 48°23' W 004°30'0 0.0
2018-Feb-14 04:00N 48°23' W 004°30'0 0.0
2018-Feb-14 03:30N 48°23' W 004°30'0 0.0
2018-Feb-14 03:00N 48°23' W 004°30'0 0.0
2018-Feb-14 02:30N 48°23' W 004°30'0 0.0
2018-Feb-14 02:00N 48°23' W 004°30'0 0.0
2018-Feb-14 01:30N 48°23' W 004°30'0 0.0
2018-Feb-14 01:00N 48°23' W 004°30'0 0.0
2018-Feb-14 00:30N 48°23' W 004°30'0 0.0
2018-Feb-14 00:00N 48°23' W 004°30'0 0.0
2018-Feb-13 23:30N 48°23' W 004°30'0 0.0
2018-Feb-13 23:01N 48°23' W 004°30'0 0.0
2018-Feb-13 22:30N 48°23' W 004°30'0 0.0
2018-Feb-13 22:00N 48°23' W 004°30'0 0.0
2018-Feb-13 21:30N 48°23' W 004°30'0 0.0
2018-Feb-13 21:00N 48°23' W 004°30'0 0.0
2018-Feb-13 20:30N 48°23' W 004°30'0 0.0
2018-Feb-13 20:00N 48°23' W 004°30'0 0.0
2018-Feb-13 19:30N 48°23' W 004°30'0 0.0
2018-Feb-13 19:00N 48°23' W 004°30'0 0.0
2018-Feb-13 18:30N 48°23' W 004°30'0 0.0
2018-Feb-13 18:00N 48°23' W 004°30'0 0.0
2018-Feb-13 17:30N 48°23' W 004°30'0 0.0
2018-Feb-13 17:00N 48°23' W 004°30'0 0.0
2018-Feb-13 16:30N 48°23' W 004°30'1 2.1
2018-Feb-13 16:00N 48°22' W 004°29'4 8.6
2018-Feb-13 15:31N 48°18' W 004°31'510.3
2018-Feb-13 15:00N 48°23' W 004°30'0 0.1
2018-Feb-13 14:30N 48°23' W 004°30'0 0.0
2018-Feb-13 14:00N 48°23' W 004°30'0 0.0
2018-Feb-13 13:30N 48°23' W 004°30'0 0.0
2018-Feb-13 13:01N 48°23' W 004°30'0 0.0
2018-Feb-13 12:31N 48°23' W 004°30'0 0.0
2018-Feb-13 12:01N 48°23' W 004°30'0 0.0
2018-Feb-13 11:30N 48°23' W 004°30'510.5
2018-Feb-13 11:00N 48°18' W 004°31'4 7.8
2018-Feb-13 10:30N 48°17' W 004°25'713.4
2018-Feb-13 10:00N 48°23' W 004°30'0 0.0
2018-Feb-13 09:30N 48°23' W 004°30'0 0.0
2018-Feb-13 09:00N 48°23' W 004°30'1 1.7
2018-Feb-13 08:30N 48°22' W 004°29'4 8.9
2018-Feb-13 08:00N 48°18' W 004°31'510.4
2018-Feb-13 07:30N 48°23' W 004°30'510.0
2018-Feb-13 07:00N 48°18' W 004°30'1 1.2
2018-Feb-13 06:30N 48°18' W 004°30'510.4
2018-Feb-13 06:01N 48°23' W 004°30'0 0.0
2018-Feb-13 05:30N 48°23' W 004°30'0 0.0
2018-Feb-13 05:00N 48°23' W 004°30'0 0.0
2018-Feb-13 04:30N 48°23' W 004°30'0 0.0
2018-Feb-13 04:00N 48°23' W 004°30'0 0.0
2018-Feb-13 03:31N 48°23' W 004°30'0 0.0
2018-Feb-13 03:00N 48°23' W 004°30'0 0.0
2018-Feb-13 02:31N 48°23' W 004°30'0 0.0
2018-Feb-13 02:00N 48°23' W 004°30'0 0.0
2018-Feb-13 01:30N 48°23' W 004°30'0 0.0
2018-Feb-13 01:01N 48°23' W 004°30'0 0.0
2018-Feb-13 00:30N 48°23' W 004°30'0 0.0
2018-Feb-13 00:00N 48°23' W 004°30'0 0.0
2018-Feb-12 23:30N 48°23' W 004°30'0 0.0
2018-Feb-12 23:01N 48°23' W 004°30'0 0.0
2018-Feb-12 22:30N 48°23' W 004°30'0 0.0
2018-Feb-12 22:00N 48°23' W 004°30'0 0.0
2018-Feb-12 21:30N 48°23' W 004°30'0 0.0
2018-Feb-12 21:00N 48°23' W 004°30'0 0.0
2018-Feb-12 20:30N 48°23' W 004°30'0 0.0
2018-Feb-12 20:01N 48°23' W 004°30'0 0.0
2018-Feb-12 19:30N 48°23' W 004°30'0 0.0
2018-Feb-12 19:00N 48°23' W 004°30'0 0.0
2018-Feb-12 18:31N 48°23' W 004°30'0 0.0
2018-Feb-12 18:01N 48°23' W 004°30'0 0.0
2018-Feb-12 17:30N 48°23' W 004°30'0 0.0
2018-Feb-12 17:00N 48°23' W 004°30'0 0.0
2018-Feb-12 16:30N 48°23' W 004°30'1 2.0
2018-Feb-12 16:00N 48°22' W 004°29'4 8.7
2018-Feb-12 15:30N 48°18' W 004°31'510.4
2018-Feb-12 15:00N 48°23' W 004°30'0 0.0
2018-Feb-12 14:30N 48°23' W 004°30'0 0.0
2018-Feb-12 14:01N 48°23' W 004°30'0 0.0
2018-Feb-12 13:31N 48°23' W 004°30'0 0.0
2018-Feb-12 13:00N 48°23' W 004°30'0 0.0
2018-Feb-12 12:31N 48°23' W 004°30'0 0.0
2018-Feb-12 12:00N 48°23' W 004°30'0 0.0
2018-Feb-12 11:30N 48°23' W 004°30'510.4
2018-Feb-12 11:00N 48°18' W 004°31'4 7.9
2018-Feb-12 10:30N 48°17' W 004°25'713.5
2018-Feb-12 10:00N 48°23' W 004°30'0 0.0
2018-Feb-12 09:30N 48°23' W 004°30'0 0.0
2018-Feb-12 09:00N 48°23' W 004°30'1 1.4
2018-Feb-12 08:30N 48°22' W 004°29'5 9.2
2018-Feb-12 08:00N 48°18' W 004°31'510.4
2018-Feb-12 07:30N 48°23' W 004°30'5 9.9
2018-Feb-12 07:01N 48°18' W 004°30'1 1.1
2018-Feb-12 06:30N 48°18' W 004°30'510.4
2018-Feb-12 06:01N 48°23' W 004°30'0 0.0
2018-Feb-12 05:31N 48°23' W 004°30'0 0.0
2018-Feb-12 05:00N 48°23' W 004°30'0 0.0
2018-Feb-12 04:31N 48°23' W 004°30'0 0.0
2018-Feb-12 04:01N 48°23' W 004°30'0 0.0
2018-Feb-12 03:30N 48°23' W 004°30'0 0.0
2018-Feb-12 03:01N 48°23' W 004°30'0 0.0
2018-Feb-12 02:31N 48°23' W 004°30'0 0.0
2018-Feb-12 02:01N 48°23' W 004°30'0 0.0
2018-Feb-12 01:30N 48°23' W 004°30'0 0.0
2018-Feb-12 01:01N 48°23' W 004°30'0 0.0
2018-Feb-12 00:30N 48°23' W 004°30'0 0.0
2018-Feb-12 00:00N 48°23' W 004°30'0 0.0
2018-Feb-11 23:31N 48°23' W 004°30'0 0.0
2018-Feb-11 23:01N 48°23' W 004°30'0 0.0
2018-Feb-11 22:31N 48°23' W 004°30'0 0.0
2018-Feb-11 22:01N 48°23' W 004°30'0 0.0
2018-Feb-11 21:31N 48°23' W 004°30'0 0.0
2018-Feb-11 21:00N 48°23' W 004°30'0 0.0
2018-Feb-11 20:30N 48°23' W 004°30'0 0.0
2018-Feb-11 20:01N 48°23' W 004°30'0 0.0
2018-Feb-11 19:31N 48°23' W 004°30'0 0.0
2018-Feb-11 19:00N 48°23' W 004°30'  

Dump ship's entire track history